createdAt,value
2019-03-04T00:01:53.063Z,1.07
2019-03-04T00:04:20.198Z,1.10
2019-03-04T00:06:47.745Z,0.90
2019-03-04T00:09:14.503Z,0.80
2019-03-04T00:11:41.913Z,0.82
2019-03-04T00:14:08.967Z,0.95
2019-03-04T00:16:36.030Z,1.07
2019-03-04T00:19:02.815Z,0.80
2019-03-04T00:21:29.833Z,1.10
2019-03-04T00:23:56.935Z,0.90
2019-03-04T00:26:24.508Z,0.90
2019-03-04T00:28:51.858Z,1.00
2019-03-04T00:31:18.988Z,0.93
2019-03-04T00:33:45.942Z,1.10
2019-03-04T00:36:13.292Z,0.80
2019-03-04T00:38:40.755Z,0.93
2019-03-04T00:41:08.209Z,0.88
2019-03-04T00:43:35.501Z,0.93
2019-03-04T00:46:02.416Z,0.98
2019-03-04T00:48:29.192Z,0.70
2019-03-04T00:50:56.343Z,1.00
2019-03-04T00:53:23.175Z,0.90
2019-03-04T00:55:50.441Z,0.88
2019-03-04T00:58:18.860Z,0.90
2019-03-04T01:00:46.470Z,1.00
2019-03-04T01:03:13.670Z,0.90
2019-03-04T01:05:41.205Z,0.90
2019-03-04T01:08:08.035Z,0.95
2019-03-04T01:10:34.785Z,0.90
2019-03-04T01:13:01.911Z,0.72
2019-03-04T01:15:28.644Z,1.00
2019-03-04T01:17:55.565Z,0.90
2019-03-04T01:20:22.556Z,0.85
2019-03-04T01:22:53.672Z,1.00
2019-03-04T01:25:21.180Z,0.90
2019-03-04T01:27:48.401Z,1.10
2019-03-04T01:30:24.763Z,0.78
2019-03-04T01:32:52.024Z,1.12
2019-03-04T01:35:18.776Z,0.82
2019-03-04T01:37:45.735Z,1.02
2019-03-04T01:40:22.130Z,0.90
2019-03-04T01:42:49.202Z,1.00
2019-03-04T01:45:17.326Z,0.80
2019-03-04T01:47:44.215Z,0.90
2019-03-04T01:50:16.105Z,1.00
2019-03-04T01:52:43.049Z,0.70
2019-03-04T01:55:11.934Z,0.82
2019-03-04T01:57:39.321Z,0.95
2019-03-04T02:00:11.078Z,0.80
2019-03-04T02:02:37.773Z,0.85
2019-03-04T02:05:06.809Z,1.00
2019-03-04T02:07:33.532Z,0.82
2019-03-04T02:10:00.986Z,0.90
2019-03-04T02:12:27.700Z,0.90
2019-03-04T02:14:54.945Z,0.80
2019-03-04T02:17:22.040Z,1.00
2019-03-04T02:19:49.269Z,0.80
2019-03-04T02:22:16.101Z,0.70
2019-03-04T02:24:42.939Z,0.80
2019-03-04T02:27:09.758Z,1.02
2019-03-04T02:29:36.515Z,0.88
2019-03-04T02:32:03.852Z,0.70
2019-03-04T02:34:31.109Z,1.07
2019-03-04T02:36:58.212Z,0.88
2019-03-04T02:39:25.496Z,0.85
2019-03-04T02:41:52.214Z,0.90
2019-03-04T02:44:19.327Z,0.93
2019-03-04T02:46:46.086Z,0.93
2019-03-04T02:49:13.258Z,0.70
2019-03-04T02:51:40.467Z,0.90
2019-03-04T02:54:07.218Z,0.78
2019-03-04T02:56:34.111Z,0.90
2019-03-04T02:59:01.690Z,0.85
2019-03-04T03:01:28.838Z,1.00
2019-03-04T03:03:56.228Z,0.90
2019-03-04T03:06:23.584Z,0.90
2019-03-04T03:08:50.449Z,1.15
2019-03-04T03:11:17.188Z,0.95
2019-03-04T03:13:44.020Z,1.10
2019-03-04T03:16:10.769Z,0.98
2019-03-04T03:18:37.887Z,1.00
2019-03-04T03:21:04.840Z,1.10
2019-03-04T03:23:31.668Z,0.95
2019-03-04T03:25:58.437Z,0.70
2019-03-04T03:28:25.218Z,0.72
2019-03-04T03:30:52.101Z,1.12
2019-03-04T03:33:19.179Z,1.07
2019-03-04T03:35:46.328Z,0.80
2019-03-04T03:38:13.201Z,0.85
2019-03-04T03:40:40.138Z,1.05
2019-03-04T03:43:07.234Z,1.10
2019-03-04T03:45:34.421Z,0.90
2019-03-04T03:48:01.246Z,1.00
2019-03-04T03:50:28.436Z,0.90
2019-03-04T03:52:55.274Z,0.95
2019-03-04T03:55:22.030Z,0.88
2019-03-04T03:57:48.788Z,0.72
2019-03-04T04:00:18.946Z,0.80
2019-03-04T04:02:46.182Z,0.82
2019-03-04T04:05:13.255Z,0.98
2019-03-04T04:07:40.144Z,1.10
2019-03-04T04:10:11.214Z,0.85
2019-03-04T04:12:38.258Z,1.02
2019-03-04T04:15:09.616Z,1.00
2019-03-04T04:17:36.360Z,0.88
2019-03-04T04:20:06.618Z,1.00
2019-03-04T04:22:33.377Z,0.80
2019-03-04T04:25:01.334Z,1.10
2019-03-04T04:27:28.090Z,0.80
2019-03-04T04:29:54.872Z,0.90
2019-03-04T04:32:22.030Z,1.10
2019-03-04T04:34:49.231Z,0.80
2019-03-04T04:37:15.971Z,0.90
2019-03-04T04:39:43.082Z,0.75
2019-03-04T04:42:10.237Z,1.00
2019-03-04T04:44:37.079Z,1.00
2019-03-04T04:47:05.637Z,0.82
2019-03-04T04:49:32.709Z,0.70
2019-03-04T04:51:59.458Z,0.75
2019-03-04T04:54:26.251Z,0.90
2019-03-04T04:56:53.139Z,1.10
2019-03-04T04:59:19.858Z,0.90
2019-03-04T05:01:46.623Z,0.93
2019-03-04T05:04:13.482Z,0.88
2019-03-04T05:06:40.345Z,1.00
2019-03-04T05:09:07.083Z,1.00
2019-03-04T05:11:33.859Z,1.10
2019-03-04T05:14:00.606Z,0.90
2019-03-04T05:16:27.339Z,0.78
2019-03-04T05:18:54.101Z,0.90
2019-03-04T05:21:21.251Z,0.80
2019-03-04T05:23:48.175Z,0.80
2019-03-04T05:26:15.210Z,1.17
2019-03-04T05:28:41.976Z,0.98
2019-03-04T05:31:08.790Z,1.10
2019-03-04T05:33:35.912Z,0.72
2019-03-04T05:36:02.719Z,1.00
2019-03-04T05:38:29.469Z,0.90
2019-03-04T05:40:56.583Z,1.10
2019-03-04T05:43:23.655Z,1.00
2019-03-04T05:45:50.394Z,1.00
2019-03-04T05:48:17.793Z,0.62
2019-03-04T05:50:44.764Z,0.80
2019-03-04T05:53:11.591Z,0.80
2019-03-04T05:55:38.529Z,0.90
2019-03-04T05:58:05.277Z,0.90
2019-03-04T06:00:34.380Z,0.98
2019-03-04T06:03:06.589Z,0.90
2019-03-04T06:05:33.497Z,0.90
2019-03-04T06:08:02.200Z,1.07
2019-03-04T06:10:29.346Z,0.70
2019-03-04T06:12:56.305Z,1.00
2019-03-04T06:15:23.047Z,1.02
2019-03-04T06:17:49.821Z,0.78
2019-03-04T06:20:18.451Z,1.00
2019-03-04T06:22:45.191Z,1.10
2019-03-04T06:25:16.346Z,1.00
2019-03-04T06:27:43.494Z,0.95
2019-03-04T06:30:19.897Z,0.88
2019-03-04T06:32:47.436Z,1.00
2019-03-04T06:35:14.865Z,0.88
2019-03-04T06:37:42.010Z,0.82
2019-03-04T06:40:16.849Z,0.75
2019-03-04T06:42:43.600Z,0.80
2019-03-04T06:45:15.692Z,1.05
2019-03-04T06:47:42.762Z,1.00
2019-03-04T06:50:49.866Z,0.90
2019-03-04T06:53:39.110Z,0.98
2019-03-04T06:56:17.778Z,0.70
2019-03-04T06:59:08.475Z,1.00
2019-03-04T07:01:56.375Z,0.98
2019-03-04T07:04:52.264Z,0.90
2019-03-04T07:07:20.194Z,1.00
2019-03-04T07:09:47.281Z,0.78
2019-03-04T07:12:14.672Z,1.00
2019-03-04T07:14:42.249Z,0.98
2019-03-04T07:17:09.289Z,1.00
2019-03-04T07:19:36.474Z,1.00
2019-03-04T07:22:03.708Z,0.82
2019-03-04T07:24:30.846Z,0.90
2019-03-04T07:26:57.603Z,0.93
2019-03-04T07:29:24.711Z,0.93
2019-03-04T07:31:51.879Z,1.00
2019-03-04T07:34:18.970Z,0.98
2019-03-04T07:36:46.093Z,1.00
2019-03-04T07:39:13.338Z,1.10
2019-03-04T07:41:40.094Z,1.10
2019-03-04T07:44:08.920Z,1.00
2019-03-04T07:46:35.747Z,1.00
2019-03-04T07:49:02.946Z,1.10
2019-03-04T07:51:29.866Z,0.98
2019-03-04T07:53:56.648Z,1.10
2019-03-04T07:56:23.570Z,0.93
2019-03-04T07:58:50.501Z,1.05
2019-03-04T08:01:17.324Z,0.90
2019-03-04T08:03:44.078Z,0.90
2019-03-04T08:06:11.267Z,1.10
2019-03-04T08:08:43.923Z,1.10
2019-03-04T08:11:46.491Z,1.10
2019-03-04T08:14:13.358Z,1.00
2019-03-04T08:16:40.259Z,0.98
2019-03-04T08:19:07.588Z,1.05
2019-03-04T08:21:34.975Z,0.70
2019-03-04T08:24:01.927Z,1.00
2019-03-04T08:26:29.336Z,0.80
2019-03-04T08:28:56.291Z,1.20
2019-03-04T08:31:23.658Z,1.10
2019-03-04T08:33:50.491Z,0.88
2019-03-04T08:36:17.337Z,1.10
2019-03-04T08:38:44.776Z,0.95
2019-03-04T08:41:12.259Z,1.10
2019-03-04T08:43:39.388Z,0.90
2019-03-04T08:46:06.617Z,1.05
2019-03-04T08:48:34.155Z,1.12
2019-03-04T08:51:02.335Z,1.05
2019-03-04T08:53:31.022Z,1.00
2019-03-04T08:55:57.993Z,1.10
2019-03-04T08:58:24.908Z,1.15
2019-03-04T09:00:51.854Z,1.00
2019-03-04T09:03:18.743Z,1.07
2019-03-04T09:05:47.633Z,0.98
2019-03-04T09:08:17.902Z,1.10
2019-03-04T09:10:45.237Z,0.95
2019-03-04T09:13:12.038Z,1.10
2019-03-04T09:15:38.955Z,0.80
2019-03-04T09:18:09.642Z,0.82
2019-03-04T09:20:48.445Z,0.95
2019-03-04T09:23:15.458Z,1.00
2019-03-04T09:25:58.313Z,1.05
2019-03-04T09:28:27.132Z,0.72
2019-03-04T09:30:56.749Z,0.80
2019-03-04T09:33:26.392Z,0.80
2019-03-04T09:35:54.645Z,0.80
2019-03-04T09:38:21.651Z,0.85
2019-03-04T09:40:48.391Z,0.82
2019-03-04T09:43:15.986Z,0.98
2019-03-04T09:45:42.780Z,0.88
2019-03-04T09:48:09.646Z,0.80
2019-03-04T09:50:37.550Z,0.90
2019-03-04T09:53:04.322Z,0.90
2019-03-04T09:55:32.626Z,0.90
2019-03-04T09:57:59.412Z,0.80
2019-03-04T10:01:03.990Z,0.90
2019-03-04T10:03:42.289Z,1.12
2019-03-04T10:06:53.651Z,0.90
2019-03-04T10:09:54.114Z,0.80
2019-03-04T10:12:38.783Z,0.80
2019-03-04T10:15:44.474Z,0.98
2019-03-04T10:18:32.368Z,0.82
2019-03-04T10:21:31.715Z,0.90
2019-03-04T10:24:25.328Z,0.88
2019-03-04T10:27:16.014Z,0.80
2019-03-04T10:30:03.827Z,0.70
2019-03-04T10:33:09.054Z,0.90
2019-03-04T10:35:47.883Z,0.70
2019-03-04T10:38:26.455Z,0.95
2019-03-04T10:41:17.129Z,0.85
2019-03-04T10:44:04.478Z,0.70
2019-03-04T10:46:53.818Z,0.80
2019-03-04T10:49:22.067Z,0.68
2019-03-04T10:51:48.905Z,0.80
2019-03-04T10:54:18.258Z,0.80
2019-03-04T10:56:45.084Z,0.90
2019-03-04T10:59:12.182Z,0.80
2019-03-04T11:01:39.321Z,0.70
2019-03-04T11:04:06.800Z,0.93
2019-03-04T11:06:33.988Z,0.80
2019-03-04T11:09:00.842Z,0.70
2019-03-04T11:11:30.077Z,0.80
2019-03-04T11:13:57.278Z,0.90
2019-03-04T11:16:24.976Z,0.93
2019-03-04T11:18:52.150Z,1.05
2019-03-04T11:21:20.042Z,0.80
2019-03-04T11:23:46.957Z,0.90
2019-03-04T11:26:13.819Z,0.90
2019-03-04T11:28:42.103Z,0.80
2019-03-04T11:31:09.134Z,0.82
2019-03-04T11:33:37.015Z,0.88
2019-03-04T11:36:03.853Z,0.95
2019-03-04T11:38:44.131Z,0.90
2019-03-04T11:41:15.777Z,1.40
2019-03-04T11:43:42.586Z,0.60
2019-03-04T11:46:10.379Z,0.90
2019-03-04T11:48:37.233Z,0.78
2019-03-04T11:51:04.673Z,0.90
2019-03-04T11:53:31.539Z,0.98
2019-03-04T11:55:58.446Z,0.90
2019-03-04T11:58:25.276Z,0.90
2019-03-04T12:01:06.673Z,0.90
2019-03-04T12:03:33.494Z,0.70
2019-03-04T12:06:00.974Z,0.88
2019-03-04T12:08:28.566Z,0.82
2019-03-04T12:10:55.875Z,1.15
2019-03-04T12:13:23.071Z,1.10
2019-03-04T12:15:50.521Z,0.70
2019-03-04T12:18:18.963Z,0.68
2019-03-04T12:20:46.401Z,0.70
2019-03-04T12:23:16.035Z,1.00
2019-03-04T12:25:46.249Z,0.80
2019-03-04T12:28:26.754Z,0.90
2019-03-04T12:30:55.649Z,0.75
2019-03-04T12:33:23.443Z,0.80
2019-03-04T12:35:51.137Z,1.40
2019-03-04T12:38:19.890Z,0.90
2019-03-04T12:40:48.075Z,0.90
2019-03-04T12:43:15.701Z,0.78
2019-03-04T12:45:43.139Z,0.80
2019-03-04T12:48:11.363Z,1.12
2019-03-04T12:50:40.137Z,0.90
2019-03-04T12:53:07.730Z,0.80
2019-03-04T12:55:34.591Z,1.05
2019-03-04T12:58:01.864Z,0.88
2019-03-04T13:00:33.844Z,0.98
2019-03-04T13:03:00.591Z,0.80
2019-03-04T13:05:27.951Z,0.98
2019-03-04T13:07:55.403Z,1.00
2019-03-04T13:10:22.803Z,1.10
2019-03-04T13:12:49.616Z,1.00
2019-03-04T13:15:26.114Z,0.88
2019-03-04T13:17:53.794Z,0.80
2019-03-04T13:20:26.172Z,0.80
2019-03-04T13:22:52.902Z,0.70
2019-03-04T13:25:20.041Z,0.82
2019-03-04T13:27:47.163Z,0.90
2019-03-04T13:30:37.345Z,0.95
2019-03-04T13:33:04.709Z,0.80
2019-03-04T13:35:34.916Z,0.75
2019-03-04T13:38:02.525Z,0.80
2019-03-04T13:40:30.548Z,1.12
2019-03-04T13:42:57.304Z,0.90
2019-03-04T13:45:25.139Z,1.00
2019-03-04T13:47:51.910Z,1.02
2019-03-04T13:50:25.157Z,0.90
2019-03-04T13:52:53.482Z,0.80
2019-03-04T13:55:20.760Z,1.00
2019-03-04T13:57:47.520Z,0.90
2019-03-04T14:00:19.325Z,0.80
2019-03-04T14:02:46.086Z,0.93
2019-03-04T14:05:19.708Z,0.75
2019-03-04T14:07:46.831Z,0.98
2019-03-04T14:10:19.224Z,0.90
2019-03-04T14:12:46.021Z,0.85
2019-03-04T14:15:23.392Z,1.00
2019-03-04T14:17:50.525Z,1.00
2019-03-04T14:20:17.342Z,0.82
2019-03-04T14:22:45.128Z,0.88
2019-03-04T14:25:12.897Z,1.20
2019-03-04T14:27:41.092Z,0.78
2019-03-04T14:30:20.715Z,1.10
2019-03-04T14:32:47.500Z,0.80
2019-03-04T14:35:14.352Z,1.10
2019-03-04T14:37:42.563Z,0.80
2019-03-04T14:40:16.014Z,0.70
2019-03-04T14:42:43.505Z,0.90
2019-03-04T14:45:18.375Z,1.00
2019-03-04T14:50:17.628Z,0.88
2019-03-04T14:52:44.628Z,0.90
2019-03-04T14:55:21.393Z,0.82
2019-03-04T14:57:48.157Z,0.90
2019-03-04T15:00:23.640Z,0.90
2019-03-04T15:02:51.508Z,1.00
2019-03-04T15:05:20.540Z,0.88
2019-03-04T15:07:47.307Z,1.05
2019-03-04T15:10:14.451Z,1.00
2019-03-04T15:12:41.606Z,1.00
2019-03-04T15:15:19.519Z,1.20
2019-03-04T15:17:46.549Z,1.00
2019-03-04T15:20:19.961Z,0.90
2019-03-04T15:22:46.747Z,1.20
2019-03-04T15:25:29.082Z,1.00
2019-03-04T15:28:19.062Z,0.95
2019-03-04T15:31:01.748Z,0.82
2019-03-04T15:33:28.546Z,1.02
2019-03-04T15:35:55.610Z,0.80
2019-03-04T15:38:22.362Z,0.82
2019-03-04T15:40:49.199Z,0.85
2019-03-04T15:43:16.100Z,0.95
2019-03-04T15:45:44.716Z,0.90
2019-03-04T15:48:13.045Z,0.85
2019-03-04T15:50:40.356Z,1.05
2019-03-04T15:53:07.085Z,0.82
2019-03-04T15:55:34.135Z,0.90
2019-03-04T15:58:00.866Z,1.00
2019-03-04T16:00:27.761Z,0.70
2019-03-04T16:02:54.583Z,0.90
2019-03-04T16:05:21.736Z,0.88
2019-03-04T16:07:48.544Z,0.72
2019-03-04T16:10:25.750Z,0.75
2019-03-04T16:12:53.002Z,0.80
2019-03-04T16:15:20.130Z,0.70
2019-03-04T16:17:46.877Z,0.82
2019-03-04T16:20:21.673Z,0.80
2019-03-04T16:22:51.114Z,1.15
2019-03-04T16:25:17.834Z,1.05
2019-03-04T16:27:44.934Z,1.00
2019-03-04T16:30:22.750Z,1.10
2019-03-04T16:32:49.624Z,0.68
2019-03-04T16:35:18.548Z,0.93
2019-03-04T16:37:45.454Z,1.10
2019-03-04T16:40:15.242Z,0.80
2019-03-04T16:42:42.049Z,0.85
2019-03-04T16:45:21.017Z,0.70
2019-03-04T16:47:48.123Z,0.50
2019-03-04T16:50:17.577Z,0.98
2019-03-04T16:52:55.472Z,0.80
2019-03-04T16:55:22.257Z,0.75
2019-03-04T16:57:48.999Z,0.70
2019-03-04T17:00:18.350Z,0.80
2019-03-04T17:02:45.139Z,0.80
2019-03-04T17:05:17.577Z,0.72
2019-03-04T17:07:45.821Z,0.70
2019-03-04T17:10:16.441Z,0.57
2019-03-04T17:12:43.471Z,0.70
2019-03-04T17:15:19.691Z,0.68
2019-03-04T17:17:46.539Z,0.90
2019-03-04T17:20:16.016Z,1.00
2019-03-04T17:22:42.789Z,0.70
2019-03-04T17:25:19.766Z,0.90
2019-03-04T17:27:46.611Z,0.82
2019-03-04T17:30:21.401Z,0.70
2019-03-04T17:35:19.430Z,0.70
2019-03-04T17:37:46.509Z,0.57
2019-03-04T17:40:27.574Z,1.00
2019-03-04T17:42:54.401Z,0.78
2019-03-04T17:45:24.784Z,0.65
2019-03-04T17:47:51.704Z,0.78
2019-03-04T17:50:41.770Z,0.40
2019-03-04T17:53:13.913Z,0.85
2019-03-04T17:55:42.658Z,0.80
2019-03-04T17:58:10.219Z,0.88
2019-03-04T18:00:38.879Z,0.50
2019-03-04T18:03:05.602Z,0.50
2019-03-04T18:05:32.367Z,0.70
2019-03-04T18:07:59.124Z,0.70
2019-03-04T18:10:25.851Z,0.65
2019-03-04T18:12:56.294Z,0.47
2019-03-04T18:15:31.399Z,0.60
2019-03-04T18:17:58.172Z,0.57
2019-03-04T18:20:34.059Z,0.50
2019-03-04T18:22:53.836Z,0.60
2019-03-04T18:25:32.420Z,0.65
2019-03-04T18:28:08.108Z,0.60
2019-03-04T18:30:55.968Z,0.78
2019-03-04T18:33:40.639Z,0.60
2019-03-04T18:36:34.192Z,0.87
2019-03-04T18:39:46.616Z,0.68
2019-03-04T18:42:39.890Z,0.47
2019-03-04T18:45:18.686Z,0.70
2019-03-04T18:48:23.591Z,0.50
2019-03-04T18:50:50.338Z,0.70
2019-03-04T18:53:17.083Z,0.50
2019-03-04T18:55:44.290Z,0.60
2019-03-04T18:58:11.479Z,0.55
2019-03-04T19:00:43.082Z,0.68
2019-03-04T19:03:10.043Z,0.60
2019-03-04T19:05:36.785Z,0.53
2019-03-04T19:08:03.666Z,0.60
2019-03-04T19:10:30.689Z,0.60
2019-03-04T19:12:57.759Z,0.62
2019-03-04T19:15:24.535Z,0.70
2019-03-04T19:17:51.275Z,0.65
2019-03-04T19:20:20.642Z,0.50
2019-03-04T19:22:47.504Z,0.50
2019-03-04T19:25:14.382Z,0.55
2019-03-04T19:27:41.199Z,0.42
2019-03-04T19:30:15.602Z,0.75
2019-03-04T19:32:43.938Z,0.50
2019-03-04T19:35:13.241Z,0.60
2019-03-04T19:37:40.089Z,0.60
2019-03-04T19:40:10.223Z,0.50
2019-03-04T19:42:37.487Z,0.60
2019-03-04T19:45:17.419Z,0.45
2019-03-04T19:47:44.264Z,0.60
2019-03-04T19:50:11.181Z,0.55
2019-03-04T19:52:37.951Z,0.60
2019-03-04T19:55:09.387Z,0.50
2019-03-04T19:57:36.134Z,0.50
2019-03-04T20:00:25.198Z,0.60
2019-03-04T20:02:52.155Z,0.50
2019-03-04T20:05:22.303Z,0.42
2019-03-04T20:07:49.218Z,0.85
2019-03-04T20:10:15.955Z,0.40
2019-03-04T20:12:42.917Z,0.60
2019-03-04T20:15:28.498Z,0.50
2019-03-04T20:17:56.605Z,0.70
2019-03-04T20:20:23.970Z,0.60
2019-03-04T20:22:52.955Z,0.70
2019-03-04T20:25:19.699Z,0.50
2019-03-04T20:27:46.449Z,0.50
2019-03-04T20:30:17.257Z,0.65
2019-03-04T20:32:45.308Z,0.60
2019-03-04T20:35:13.743Z,0.50
2019-03-04T20:37:52.104Z,0.47
2019-03-04T20:40:18.932Z,0.70
2019-03-04T20:42:45.772Z,0.50
2019-03-04T20:45:14.524Z,0.47
2019-03-04T20:47:41.771Z,0.50
2019-03-04T20:50:13.938Z,0.70
2019-03-04T20:52:40.911Z,0.40
2019-03-04T20:55:09.339Z,0.45
2019-03-04T20:57:36.087Z,0.50
2019-03-04T21:00:11.256Z,0.62
2019-03-04T21:02:38.100Z,0.30
2019-03-04T21:05:08.363Z,0.50
2019-03-04T21:07:35.190Z,0.50
2019-03-04T21:10:02.435Z,0.33
2019-03-04T21:12:29.281Z,0.40
2019-03-04T21:14:56.847Z,0.50
2019-03-04T21:17:24.513Z,0.50
2019-03-04T21:19:51.608Z,0.62
2019-03-04T21:22:18.384Z,0.60
2019-03-04T21:24:45.837Z,0.40
2019-03-04T21:27:12.694Z,0.50
2019-03-04T21:29:48.018Z,0.60
2019-03-04T21:32:26.447Z,0.40
2019-03-04T21:35:28.533Z,0.70
2019-03-04T21:37:55.310Z,0.50
2019-03-04T21:40:42.592Z,0.60
2019-03-04T21:43:15.174Z,0.50
2019-03-04T21:45:52.041Z,0.40
2019-03-04T21:48:30.715Z,0.50
2019-03-04T21:51:38.282Z,0.65
2019-03-04T21:54:06.375Z,0.40
2019-03-04T21:56:59.498Z,0.37
2019-03-04T21:59:27.001Z,0.20
2019-03-04T22:02:23.719Z,0.65
2019-03-04T22:04:50.569Z,0.50
2019-03-04T22:07:19.900Z,0.55
2019-03-04T22:09:47.488Z,0.42
2019-03-04T22:12:14.579Z,0.50
2019-03-04T22:14:43.454Z,0.50
2019-03-04T22:17:10.572Z,0.40
2019-03-04T22:19:37.319Z,0.65
2019-03-04T22:22:04.070Z,0.40
2019-03-04T22:24:30.934Z,0.60
2019-03-04T22:26:58.092Z,0.40
2019-03-04T22:29:25.206Z,0.37
2019-03-04T22:31:51.952Z,0.42
2019-03-04T22:34:18.799Z,0.30
2019-03-04T22:36:45.504Z,0.40
2019-03-04T22:39:12.272Z,0.47
2019-03-04T22:41:39.342Z,0.40
2019-03-04T22:44:06.094Z,0.40
2019-03-04T22:46:33.141Z,0.30
2019-03-04T22:49:00.378Z,0.40
2019-03-04T22:51:27.246Z,0.50
2019-03-04T22:53:54.130Z,0.30
2019-03-04T22:56:20.946Z,0.40
2019-03-04T22:58:48.463Z,0.30
2019-03-04T23:01:27.951Z,0.40
2019-03-04T23:03:59.141Z,0.68
2019-03-04T23:06:55.684Z,0.50
2019-03-04T23:09:28.362Z,0.40
2019-03-04T23:12:01.530Z,0.55
2019-03-04T23:14:29.375Z,0.40
2019-03-04T23:16:56.226Z,0.55
2019-03-04T23:19:23.423Z,0.30
2019-03-04T23:21:50.454Z,0.47
2019-03-04T23:24:17.316Z,0.40
2019-03-04T23:26:44.140Z,0.40
2019-03-04T23:29:11.317Z,0.35
2019-03-04T23:31:38.138Z,0.47
2019-03-04T23:34:05.693Z,0.30
2019-03-04T23:36:32.817Z,0.55
2019-03-04T23:38:59.828Z,0.45
2019-03-04T23:41:26.574Z,0.45
2019-03-04T23:43:53.447Z,0.40
2019-03-04T23:46:20.412Z,0.40
2019-03-04T23:48:47.189Z,0.30
2019-03-04T23:51:14.471Z,0.40
2019-03-04T23:53:41.301Z,0.50
2019-03-04T23:56:08.079Z,0.45
2019-03-04T23:58:34.931Z,0.50
